sensor_id;sensor_type;location;lat;lon;timestamp;P1;durP1;ratioP1;P2;durP2;ratioP2
17345;SDS011;8790;53.590;10.002;2022-09-09T00:00:22;24.30;;;19.67;;
17345;SDS011;8790;53.590;10.002;2022-09-09T00:02:58;27.13;;;19.83;;
17345;SDS011;8790;53.590;10.002;2022-09-09T00:05:38;24.37;;;19.23;;
17345;SDS011;8790;53.590;10.002;2022-09-09T00:08:17;25.83;;;20.83;;
17345;SDS011;8790;53.590;10.002;2022-09-09T00:10:54;26.93;;;20.83;;
17345;SDS011;8790;53.590;10.002;2022-09-09T00:13:31;26.57;;;19.90;;
17345;SDS011;8790;53.590;10.002;2022-09-09T00:16:08;27.03;;;21.43;;
17345;SDS011;8790;53.590;10.002;2022-09-09T00:18:48;28.27;;;21.00;;
17345;SDS011;8790;53.590;10.002;2022-09-09T00:21:32;28.43;;;21.00;;
17345;SDS011;8790;53.590;10.002;2022-09-09T00:24:08;31.70;;;22.60;;
17345;SDS011;8790;53.590;10.002;2022-09-09T00:26:48;33.87;;;24.63;;
17345;SDS011;8790;53.590;10.002;2022-09-09T00:29:28;33.33;;;24.20;;
17345;SDS011;8790;53.590;10.002;2022-09-09T00:32:11;32.40;;;23.30;;
17345;SDS011;8790;53.590;10.002;2022-09-09T00:34:46;34.57;;;24.80;;
17345;SDS011;8790;53.590;10.002;2022-09-09T00:37:21;35.90;;;24.97;;
17345;SDS011;8790;53.590;10.002;2022-09-09T00:39:57;38.73;;;25.63;;
17345;SDS011;8790;53.590;10.002;2022-09-09T00:42:35;36.83;;;25.23;;
17345;SDS011;8790;53.590;10.002;2022-09-09T00:45:17;36.63;;;25.17;;
17345;SDS011;8790;53.590;10.002;2022-09-09T00:48:00;35.63;;;24.80;;
17345;SDS011;8790;53.590;10.002;2022-09-09T00:50:41;39.87;;;25.80;;
17345;SDS011;8790;53.590;10.002;2022-09-09T00:53:23;37.43;;;24.87;;
17345;SDS011;8790;53.590;10.002;2022-09-09T00:56:06;34.73;;;22.97;;
17345;SDS011;8790;53.590;10.002;2022-09-09T00:58:52;31.87;;;23.33;;
17345;SDS011;8790;53.590;10.002;2022-09-09T01:01:31;36.30;;;24.57;;
17345;SDS011;8790;53.590;10.002;2022-09-09T01:04:03;30.07;;;22.50;;
17345;SDS011;8790;53.590;10.002;2022-09-09T01:06:40;30.90;;;21.90;;
17345;SDS011;8790;53.590;10.002;2022-09-09T01:09:15;30.73;;;22.70;;
17345;SDS011;8790;53.590;10.002;2022-09-09T01:11:55;30.37;;;22.33;;
17345;SDS011;8790;53.590;10.002;2022-09-09T01:14:38;29.53;;;21.83;;
17345;SDS011;8790;53.590;10.002;2022-09-09T01:17:16;33.27;;;23.17;;
17345;SDS011;8790;53.590;10.002;2022-09-09T01:20:04;35.37;;;23.80;;
17345;SDS011;8790;53.590;10.002;2022-09-09T01:22:50;38.33;;;24.63;;
17345;SDS011;8790;53.590;10.002;2022-09-09T01:28:45;35.23;;;24.33;;
17345;SDS011;8790;53.590;10.002;2022-09-09T01:31:20;37.40;;;25.50;;
17345;SDS011;8790;53.590;10.002;2022-09-09T01:33:57;35.27;;;24.17;;
17345;SDS011;8790;53.590;10.002;2022-09-09T01:36:31;39.57;;;24.70;;
17345;SDS011;8790;53.590;10.002;2022-09-09T01:39:09;37.10;;;24.13;;
17345;SDS011;8790;53.590;10.002;2022-09-09T01:41:44;35.80;;;23.93;;
17345;SDS011;8790;53.590;10.002;2022-09-09T01:44:18;34.30;;;24.00;;
17345;SDS011;8790;53.590;10.002;2022-09-09T01:46:50;34.53;;;24.20;;
17345;SDS011;8790;53.590;10.002;2022-09-09T01:49:24;33.83;;;23.17;;
17345;SDS011;8790;53.590;10.002;2022-09-09T01:51:56;34.00;;;22.87;;
17345;SDS011;8790;53.590;10.002;2022-09-09T01:54:36;33.40;;;23.03;;
17345;SDS011;8790;53.590;10.002;2022-09-09T01:57:17;31.50;;;22.80;;
17345;SDS011;8790;53.590;10.002;2022-09-09T01:59:59;32.87;;;22.27;;
17345;SDS011;8790;53.590;10.002;2022-09-09T02:02:46;31.37;;;22.30;;
17345;SDS011;8790;53.590;10.002;2022-09-09T02:05:35;30.33;;;20.67;;
17345;SDS011;8790;53.590;10.002;2022-09-09T02:08:17;30.17;;;22.10;;
17345;SDS011;8790;53.590;10.002;2022-09-09T02:11:01;30.73;;;21.50;;
17345;SDS011;8790;53.590;10.002;2022-09-09T02:13:47;32.20;;;22.20;;
17345;SDS011;8790;53.590;10.002;2022-09-09T02:16:23;30.60;;;21.90;;
17345;SDS011;8790;53.590;10.002;2022-09-09T02:19:01;31.90;;;22.13;;
17345;SDS011;8790;53.590;10.002;2022-09-09T02:21:47;32.47;;;22.30;;
17345;SDS011;8790;53.590;10.002;2022-09-09T02:24:20;32.33;;;22.10;;
17345;SDS011;8790;53.590;10.002;2022-09-09T02:27:03;35.03;;;22.40;;
17345;SDS011;8790;53.590;10.002;2022-09-09T02:29:41;31.20;;;22.53;;
17345;SDS011;8790;53.590;10.002;2022-09-09T02:32:18;33.47;;;21.83;;
17345;SDS011;8790;53.590;10.002;2022-09-09T02:34:55;31.40;;;22.77;;
17345;SDS011;8790;53.590;10.002;2022-09-09T02:37:30;30.60;;;21.60;;
17345;SDS011;8790;53.590;10.002;2022-09-09T02:40:07;31.47;;;21.93;;
17345;SDS011;8790;53.590;10.002;2022-09-09T02:42:46;29.63;;;21.70;;
17345;SDS011;8790;53.590;10.002;2022-09-09T02:45:23;29.03;;;20.63;;
17345;SDS011;8790;53.590;10.002;2022-09-09T02:47:58;28.33;;;20.83;;
17345;SDS011;8790;53.590;10.002;2022-09-09T02:50:41;25.60;;;19.70;;
17345;SDS011;8790;53.590;10.002;2022-09-09T02:53:27;28.07;;;20.37;;
17345;SDS011;8790;53.590;10.002;2022-09-09T02:56:05;25.23;;;19.23;;
17345;SDS011;8790;53.590;10.002;2022-09-09T02:58:45;27.03;;;19.27;;
17345;SDS011;8790;53.590;10.002;2022-09-09T03:01:19;25.40;;;19.13;;
17345;SDS011;8790;53.590;10.002;2022-09-09T03:03:51;29.70;;;19.93;;
17345;SDS011;8790;53.590;10.002;2022-09-09T03:06:25;24.17;;;18.50;;
17345;SDS011;8790;53.590;10.002;2022-09-09T03:09:05;22.93;;;17.70;;
17345;SDS011;8790;53.590;10.002;2022-09-09T03:11:38;23.47;;;17.97;;
17345;SDS011;8790;53.590;10.002;2022-09-09T03:14:11;21.37;;;17.50;;
17345;SDS011;8790;53.590;10.002;2022-09-09T03:16:45;20.00;;;16.53;;
17345;SDS011;8790;53.590;10.002;2022-09-09T03:19:17;19.80;;;15.97;;
17345;SDS011;8790;53.590;10.002;2022-09-09T03:21:49;22.00;;;16.50;;
17345;SDS011;8790;53.590;10.002;2022-09-09T03:24:22;22.83;;;16.90;;
17345;SDS011;8790;53.590;10.002;2022-09-09T03:26:53;25.40;;;18.37;;
17345;SDS011;8790;53.590;10.002;2022-09-09T03:29:26;23.30;;;18.33;;
17345;SDS011;8790;53.590;10.002;2022-09-09T03:32:02;25.17;;;19.20;;
17345;SDS011;8790;53.590;10.002;2022-09-09T03:34:34;23.90;;;18.50;;
17345;SDS011;8790;53.590;10.002;2022-09-09T03:37:07;25.90;;;18.43;;
17345;SDS011;8790;53.590;10.002;2022-09-09T03:39:40;24.23;;;18.50;;
17345;SDS011;8790;53.590;10.002;2022-09-09T03:42:13;27.57;;;19.73;;
17345;SDS011;8790;53.590;10.002;2022-09-09T03:44:48;27.20;;;19.57;;
17345;SDS011;8790;53.590;10.002;2022-09-09T03:47:24;28.33;;;20.00;;
17345;SDS011;8790;53.590;10.002;2022-09-09T03:50:09;27.23;;;18.97;;
17345;SDS011;8790;53.590;10.002;2022-09-09T03:52:46;29.23;;;19.17;;
17345;SDS011;8790;53.590;10.002;2022-09-09T03:55:23;24.77;;;18.90;;
17345;SDS011;8790;53.590;10.002;2022-09-09T03:57:55;28.70;;;18.90;;
17345;SDS011;8790;53.590;10.002;2022-09-09T04:00:27;27.53;;;19.10;;
17345;SDS011;8790;53.590;10.002;2022-09-09T04:03:02;27.03;;;18.50;;
17345;SDS011;8790;53.590;10.002;2022-09-09T04:05:34;28.43;;;20.27;;
17345;SDS011;8790;53.590;10.002;2022-09-09T04:08:09;26.97;;;18.90;;
17345;SDS011;8790;53.590;10.002;2022-09-09T04:10:42;27.50;;;19.03;;
17345;SDS011;8790;53.590;10.002;2022-09-09T04:13:16;28.57;;;19.40;;
17345;SDS011;8790;53.590;10.002;2022-09-09T04:15:50;30.33;;;18.97;;
17345;SDS011;8790;53.590;10.002;2022-09-09T04:18:24;29.07;;;19.97;;
17345;SDS011;8790;53.590;10.002;2022-09-09T04:20:58;25.50;;;17.93;;
17345;SDS011;8790;53.590;10.002;2022-09-09T04:23:33;25.47;;;18.33;;
17345;SDS011;8790;53.590;10.002;2022-09-09T04:26:06;23.63;;;17.53;;
17345;SDS011;8790;53.590;10.002;2022-09-09T04:28:39;25.80;;;17.77;;
17345;SDS011;8790;53.590;10.002;2022-09-09T04:31:19;22.53;;;16.97;;
17345;SDS011;8790;53.590;10.002;2022-09-09T04:33:56;21.57;;;16.83;;
17345;SDS011;8790;53.590;10.002;2022-09-09T04:36:32;24.17;;;16.97;;
17345;SDS011;8790;53.590;10.002;2022-09-09T04:39:07;19.70;;;15.63;;
17345;SDS011;8790;53.590;10.002;2022-09-09T04:41:38;19.20;;;15.23;;
17345;SDS011;8790;53.590;10.002;2022-09-09T04:44:11;20.50;;;15.80;;
17345;SDS011;8790;53.590;10.002;2022-09-09T04:46:43;19.63;;;15.23;;
17345;SDS011;8790;53.590;10.002;2022-09-09T04:49:16;19.70;;;14.73;;
17345;SDS011;8790;53.590;10.002;2022-09-09T04:51:48;18.93;;;13.67;;
17345;SDS011;8790;53.590;10.002;2022-09-09T04:54:21;18.60;;;13.80;;
17345;SDS011;8790;53.590;10.002;2022-09-09T04:56:54;17.60;;;13.27;;
17345;SDS011;8790;53.590;10.002;2022-09-09T04:59:26;17.30;;;13.30;;
17345;SDS011;8790;53.590;10.002;2022-09-09T05:02:01;16.97;;;13.47;;
17345;SDS011;8790;53.590;10.002;2022-09-09T05:04:35;17.90;;;12.93;;
17345;SDS011;8790;53.590;10.002;2022-09-09T05:07:12;17.10;;;13.70;;
17345;SDS011;8790;53.590;10.002;2022-09-09T05:09:46;14.60;;;12.70;;
17345;SDS011;8790;53.590;10.002;2022-09-09T05:12:20;13.73;;;11.97;;
17345;SDS011;8790;53.590;10.002;2022-09-09T05:14:55;15.80;;;12.90;;
17345;SDS011;8790;53.590;10.002;2022-09-09T05:17:27;15.07;;;12.27;;
17345;SDS011;8790;53.590;10.002;2022-09-09T05:20:00;16.57;;;12.77;;
17345;SDS011;8790;53.590;10.002;2022-09-09T05:22:34;14.57;;;12.57;;
17345;SDS011;8790;53.590;10.002;2022-09-09T05:25:07;15.33;;;12.70;;
17345;SDS011;8790;53.590;10.002;2022-09-09T05:27:39;15.00;;;12.40;;
17345;SDS011;8790;53.590;10.002;2022-09-09T05:30:11;16.57;;;11.90;;
17345;SDS011;8790;53.590;10.002;2022-09-09T05:32:43;13.07;;;11.27;;
17345;SDS011;8790;53.590;10.002;2022-09-09T05:35:18;14.37;;;12.20;;
17345;SDS011;8790;53.590;10.002;2022-09-09T05:37:50;13.70;;;11.60;;
17345;SDS011;8790;53.590;10.002;2022-09-09T05:40:22;13.43;;;11.73;;
17345;SDS011;8790;53.590;10.002;2022-09-09T05:42:54;15.63;;;11.50;;
17345;SDS011;8790;53.590;10.002;2022-09-09T05:45:30;12.40;;;11.00;;
17345;SDS011;8790;53.590;10.002;2022-09-09T05:48:02;14.57;;;11.23;;
17345;SDS011;8790;53.590;10.002;2022-09-09T05:50:36;12.30;;;10.77;;
17345;SDS011;8790;53.590;10.002;2022-09-09T05:53:07;13.60;;;11.07;;
17345;SDS011;8790;53.590;10.002;2022-09-09T05:55:46;11.67;;;10.13;;
17345;SDS011;8790;53.590;10.002;2022-09-09T05:58:18;13.00;;;10.20;;
17345;SDS011;8790;53.590;10.002;2022-09-09T06:00:50;12.37;;;10.37;;
17345;SDS011;8790;53.590;10.002;2022-09-09T06:03:22;12.97;;;9.80;;
17345;SDS011;8790;53.590;10.002;2022-09-09T06:06:00;10.93;;;9.77;;
17345;SDS011;8790;53.590;10.002;2022-09-09T06:08:35;10.87;;;9.03;;
17345;SDS011;8790;53.590;10.002;2022-09-09T06:11:10;12.70;;;9.03;;
17345;SDS011;8790;53.590;10.002;2022-09-09T06:13:43;12.80;;;9.23;;
17345;SDS011;8790;53.590;10.002;2022-09-09T06:16:17;9.83;;;8.47;;
17345;SDS011;8790;53.590;10.002;2022-09-09T06:18:51;11.97;;;8.77;;
17345;SDS011;8790;53.590;10.002;2022-09-09T06:21:26;10.03;;;7.93;;
17345;SDS011;8790;53.590;10.002;2022-09-09T06:24:01;8.83;;;7.93;;
17345;SDS011;8790;53.590;10.002;2022-09-09T06:26:34;9.40;;;7.47;;
17345;SDS011;8790;53.590;10.002;2022-09-09T06:29:08;10.43;;;7.87;;
17345;SDS011;8790;53.590;10.002;2022-09-09T06:31:40;8.93;;;7.63;;
17345;SDS011;8790;53.590;10.002;2022-09-09T06:34:18;7.60;;;6.83;;
17345;SDS011;8790;53.590;10.002;2022-09-09T06:36:55;9.03;;;7.70;;
17345;SDS011;8790;53.590;10.002;2022-09-09T06:39:29;8.70;;;7.53;;
17345;SDS011;8790;53.590;10.002;2022-09-09T06:42:01;8.97;;;7.37;;
17345;SDS011;8790;53.590;10.002;2022-09-09T06:44:58;10.83;;;7.53;;
17345;SDS011;8790;53.590;10.002;2022-09-09T06:48:02;8.87;;;7.97;;
17345;SDS011;8790;53.590;10.002;2022-09-09T06:50:34;9.57;;;7.93;;
17345;SDS011;8790;53.590;10.002;2022-09-09T06:53:08;11.07;;;7.80;;
17345;SDS011;8790;53.590;10.002;2022-09-09T06:55:40;9.93;;;7.30;;
17345;SDS011;8790;53.590;10.002;2022-09-09T06:58:15;8.87;;;7.40;;
17345;SDS011;8790;53.590;10.002;2022-09-09T07:00:48;9.87;;;7.70;;
17345;SDS011;8790;53.590;10.002;2022-09-09T07:03:21;8.83;;;7.93;;
17345;SDS011;8790;53.590;10.002;2022-09-09T07:05:53;9.33;;;7.80;;
17345;SDS011;8790;53.590;10.002;2022-09-09T07:08:29;8.37;;;7.27;;
17345;SDS011;8790;53.590;10.002;2022-09-09T07:11:02;11.50;;;7.40;;
17345;SDS011;8790;53.590;10.002;2022-09-09T07:13:37;8.77;;;7.50;;
17345;SDS011;8790;53.590;10.002;2022-09-09T07:16:11;10.73;;;8.20;;
17345;SDS011;8790;53.590;10.002;2022-09-09T07:18:46;14.10;;;8.00;;
17345;SDS011;8790;53.590;10.002;2022-09-09T07:21:20;9.40;;;7.60;;
17345;SDS011;8790;53.590;10.002;2022-09-09T07:23:53;10.63;;;7.70;;
17345;SDS011;8790;53.590;10.002;2022-09-09T07:26:27;12.20;;;7.50;;
17345;SDS011;8790;53.590;10.002;2022-09-09T07:29:02;10.30;;;7.60;;
17345;SDS011;8790;53.590;10.002;2022-09-09T07:31:36;12.00;;;7.70;;
17345;SDS011;8790;53.590;10.002;2022-09-09T07:34:13;10.23;;;7.63;;
17345;SDS011;8790;53.590;10.002;2022-09-09T07:36:45;8.27;;;6.93;;
17345;SDS011;8790;53.590;10.002;2022-09-09T07:39:18;7.87;;;7.07;;
17345;SDS011;8790;53.590;10.002;2022-09-09T07:41:54;9.10;;;7.20;;
17345;SDS011;8790;53.590;10.002;2022-09-09T07:44:27;8.63;;;7.33;;
17345;SDS011;8790;53.590;10.002;2022-09-09T07:47:06;10.43;;;7.20;;
17345;SDS011;8790;53.590;10.002;2022-09-09T07:49:42;8.97;;;6.70;;
17345;SDS011;8790;53.590;10.002;2022-09-09T07:52:17;7.87;;;6.73;;
17345;SDS011;8790;53.590;10.002;2022-09-09T07:54:52;9.43;;;6.90;;
17345;SDS011;8790;53.590;10.002;2022-09-09T07:57:23;8.67;;;6.77;;
17345;SDS011;8790;53.590;10.002;2022-09-09T07:59:57;9.47;;;6.87;;
17345;SDS011;8790;53.590;10.002;2022-09-09T08:02:29;7.63;;;6.23;;
17345;SDS011;8790;53.590;10.002;2022-09-09T08:05:03;9.20;;;6.43;;
17345;SDS011;8790;53.590;10.002;2022-09-09T08:07:36;10.03;;;6.57;;
17345;SDS011;8790;53.590;10.002;2022-09-09T08:10:10;7.50;;;6.30;;
17345;SDS011;8790;53.590;10.002;2022-09-09T08:12:45;7.47;;;5.80;;
17345;SDS011;8790;53.590;10.002;2022-09-09T08:15:17;9.77;;;6.67;;
17345;SDS011;8790;53.590;10.002;2022-09-09T08:17:49;8.33;;;6.37;;
17345;SDS011;8790;53.590;10.002;2022-09-09T08:20:21;7.20;;;6.50;;
17345;SDS011;8790;53.590;10.002;2022-09-09T08:22:54;7.60;;;6.20;;
17345;SDS011;8790;53.590;10.002;2022-09-09T08:25:28;9.43;;;5.70;;
17345;SDS011;8790;53.590;10.002;2022-09-09T08:28:00;7.80;;;6.03;;
17345;SDS011;8790;53.590;10.002;2022-09-09T08:30:33;7.23;;;6.00;;
17345;SDS011;8790;53.590;10.002;2022-09-09T08:33:05;7.37;;;5.47;;
17345;SDS011;8790;53.590;10.002;2022-09-09T08:35:38;9.83;;;6.00;;
17345;SDS011;8790;53.590;10.002;2022-09-09T08:38:10;6.47;;;5.67;;
17345;SDS011;8790;53.590;10.002;2022-09-09T08:40:44;9.07;;;6.07;;
17345;SDS011;8790;53.590;10.002;2022-09-09T08:43:21;8.77;;;6.13;;
17345;SDS011;8790;53.590;10.002;2022-09-09T08:45:55;6.60;;;5.47;;
17345;SDS011;8790;53.590;10.002;2022-09-09T08:48:39;6.60;;;5.60;;
17345;SDS011;8790;53.590;10.002;2022-09-09T08:51:17;8.97;;;6.20;;
17345;SDS011;8790;53.590;10.002;2022-09-09T08:53:50;8.07;;;6.20;;
17345;SDS011;8790;53.590;10.002;2022-09-09T08:56:24;8.10;;;6.13;;
17345;SDS011;8790;53.590;10.002;2022-09-09T08:59:01;7.57;;;5.43;;
17345;SDS011;8790;53.590;10.002;2022-09-09T09:01:48;7.70;;;5.80;;
17345;SDS011;8790;53.590;10.002;2022-09-09T09:04:45;5.97;;;5.37;;
17345;SDS011;8790;53.590;10.002;2022-09-09T09:07:33;6.27;;;5.57;;
17345;SDS011;8790;53.590;10.002;2022-09-09T09:10:15;7.27;;;5.53;;
17345;SDS011;8790;53.590;10.002;2022-09-09T09:12:58;6.80;;;5.37;;
17345;SDS011;8790;53.590;10.002;2022-09-09T09:15:33;6.70;;;5.30;;
17345;SDS011;8790;53.590;10.002;2022-09-09T09:18:10;7.13;;;5.07;;
17345;SDS011;8790;53.590;10.002;2022-09-09T09:20:47;8.63;;;5.20;;
17345;SDS011;8790;53.590;10.002;2022-09-09T09:23:29;8.40;;;5.07;;
17345;SDS011;8790;53.590;10.002;2022-09-09T09:26:09;8.00;;;4.80;;
17345;SDS011;8790;53.590;10.002;2022-09-09T09:28:44;7.50;;;4.53;;
17345;SDS011;8790;53.590;10.002;2022-09-09T09:31:20;4.67;;;3.63;;
17345;SDS011;8790;53.590;10.002;2022-09-09T09:33:54;6.30;;;3.90;;
17345;SDS011;8790;53.590;10.002;2022-09-09T09:36:35;5.00;;;3.87;;
17345;SDS011;8790;53.590;10.002;2022-09-09T09:39:21;9.73;;;6.00;;
17345;SDS011;8790;53.590;10.002;2022-09-09T09:41:55;6.60;;;4.40;;
17345;SDS011;8790;53.590;10.002;2022-09-09T09:44:31;6.03;;;3.80;;
17345;SDS011;8790;53.590;10.002;2022-09-09T09:47:13;4.13;;;3.23;;
17345;SDS011;8790;53.590;10.002;2022-09-09T09:49:52;4.03;;;3.00;;
17345;SDS011;8790;53.590;10.002;2022-09-09T09:52:26;3.63;;;3.13;;
17345;SDS011;8790;53.590;10.002;2022-09-09T09:55:02;4.47;;;3.27;;
17345;SDS011;8790;53.590;10.002;2022-09-09T09:57:37;5.20;;;3.23;;
17345;SDS011;8790;53.590;10.002;2022-09-09T10:00:15;4.50;;;3.20;;
17345;SDS011;8790;53.590;10.002;2022-09-09T10:02:54;4.53;;;2.70;;
17345;SDS011;8790;53.590;10.002;2022-09-09T10:05:29;4.40;;;2.80;;
17345;SDS011;8790;53.590;10.002;2022-09-09T10:08:10;4.60;;;2.80;;
17345;SDS011;8790;53.590;10.002;2022-09-09T10:10:47;3.87;;;2.93;;
17345;SDS011;8790;53.590;10.002;2022-09-09T10:13:27;3.73;;;2.93;;
17345;SDS011;8790;53.590;10.002;2022-09-09T10:16:10;3.37;;;2.97;;
17345;SDS011;8790;53.590;10.002;2022-09-09T10:18:56;4.73;;;2.70;;
17345;SDS011;8790;53.590;10.002;2022-09-09T10:21:38;5.17;;;2.70;;
17345;SDS011;8790;53.590;10.002;2022-09-09T10:24:30;3.90;;;2.77;;
17345;SDS011;8790;53.590;10.002;2022-09-09T10:27:17;3.00;;;2.60;;
17345;SDS011;8790;53.590;10.002;2022-09-09T10:30:03;4.17;;;2.43;;
17345;SDS011;8790;53.590;10.002;2022-09-09T10:32:45;6.70;;;2.73;;
17345;SDS011;8790;53.590;10.002;2022-09-09T10:35:25;2.67;;;2.20;;
17345;SDS011;8790;53.590;10.002;2022-09-09T10:38:05;2.20;;;2.00;;
17345;SDS011;8790;53.590;10.002;2022-09-09T10:40:59;2.73;;;2.30;;
17345;SDS011;8790;53.590;10.002;2022-09-09T10:43:46;2.30;;;2.10;;
17345;SDS011;8790;53.590;10.002;2022-09-09T10:46:37;3.03;;;2.30;;
17345;SDS011;8790;53.590;10.002;2022-09-09T10:49:21;3.53;;;2.10;;
17345;SDS011;8790;53.590;10.002;2022-09-09T10:52:01;4.33;;;2.10;;
17345;SDS011;8790;53.590;10.002;2022-09-09T10:54:49;3.97;;;1.90;;
17345;SDS011;8790;53.590;10.002;2022-09-09T10:57:28;4.03;;;2.47;;
17345;SDS011;8790;53.590;10.002;2022-09-09T11:00:06;5.43;;;3.53;;
17345;SDS011;8790;53.590;10.002;2022-09-09T11:02:47;4.90;;;1.83;;
17345;SDS011;8790;53.590;10.002;2022-09-09T11:05:24;3.67;;;1.67;;
17345;SDS011;8790;53.590;10.002;2022-09-09T11:08:01;3.03;;;1.90;;
17345;SDS011;8790;53.590;10.002;2022-09-09T11:10:37;2.90;;;1.50;;
17345;SDS011;8790;53.590;10.002;2022-09-09T11:13:14;3.43;;;1.67;;
17345;SDS011;8790;53.590;10.002;2022-09-09T11:15:50;3.53;;;1.60;;
17345;SDS011;8790;53.590;10.002;2022-09-09T11:18:24;2.07;;;1.30;;
17345;SDS011;8790;53.590;10.002;2022-09-09T11:20:59;3.00;;;1.50;;
17345;SDS011;8790;53.590;10.002;2022-09-09T11:23:35;2.60;;;1.60;;
17345;SDS011;8790;53.590;10.002;2022-09-09T11:26:12;1.83;;;1.60;;
17345;SDS011;8790;53.590;10.002;2022-09-09T11:28:53;1.67;;;1.50;;
17345;SDS011;8790;53.590;10.002;2022-09-09T11:31:40;4.57;;;1.80;;
17345;SDS011;8790;53.590;10.002;2022-09-09T11:34:18;2.95;;;1.70;;
17345;SDS011;8790;53.590;10.002;2022-09-09T11:37:06;3.00;;;2.00;;
17345;SDS011;8790;53.590;10.002;2022-09-09T11:39:57;3.08;;;1.80;;
17345;SDS011;8790;53.590;10.002;2022-09-09T11:42:39;2.55;;;1.90;;
17345;SDS011;8790;53.590;10.002;2022-09-09T11:45:19;3.40;;;2.05;;
17345;SDS011;8790;53.590;10.002;2022-09-09T11:47:56;3.80;;;2.03;;
17345;SDS011;8790;53.590;10.002;2022-09-09T11:50:30;3.45;;;2.13;;
17345;SDS011;8790;53.590;10.002;2022-09-09T11:53:16;4.67;;;2.00;;
17345;SDS011;8790;53.590;10.002;2022-09-09T11:59:02;3.70;;;2.13;;
17345;SDS011;8790;53.590;10.002;2022-09-09T12:01:39;4.33;;;2.40;;
17345;SDS011;8790;53.590;10.002;2022-09-09T12:04:18;2.47;;;1.95;;
17345;SDS011;8790;53.590;10.002;2022-09-09T12:07:02;4.55;;;2.28;;
17345;SDS011;8790;53.590;10.002;2022-09-09T12:09:42;3.95;;;2.40;;
17345;SDS011;8790;53.590;10.002;2022-09-09T12:12:28;2.58;;;2.05;;
17345;SDS011;8790;53.590;10.002;2022-09-09T12:15:21;3.13;;;1.97;;
17345;SDS011;8790;53.590;10.002;2022-09-09T12:17:58;2.67;;;2.13;;
17345;SDS011;8790;53.590;10.002;2022-09-09T12:20:33;4.65;;;2.30;;
17345;SDS011;8790;53.590;10.002;2022-09-09T12:23:17;4.03;;;2.30;;
17345;SDS011;8790;53.590;10.002;2022-09-09T12:28:53;2.90;;;2.38;;
17345;SDS011;8790;53.590;10.002;2022-09-09T12:31:37;3.60;;;2.15;;
17345;SDS011;8790;53.590;10.002;2022-09-09T12:34:15;4.82;;;2.83;;
17345;SDS011;8790;53.590;10.002;2022-09-09T12:36:51;3.22;;;2.60;;
17345;SDS011;8790;53.590;10.002;2022-09-09T12:39:29;2.92;;;2.25;;
17345;SDS011;8790;53.590;10.002;2022-09-09T12:42:14;4.00;;;2.35;;
17345;SDS011;8790;53.590;10.002;2022-09-09T12:44:51;3.00;;;2.70;;
17345;SDS011;8790;53.590;10.002;2022-09-09T12:47:25;4.23;;;2.33;;
17345;SDS011;8790;53.590;10.002;2022-09-09T12:50:03;3.57;;;2.50;;
17345;SDS011;8790;53.590;10.002;2022-09-09T12:52:36;4.00;;;2.47;;
17345;SDS011;8790;53.590;10.002;2022-09-09T12:55:15;4.70;;;2.53;;
17345;SDS011;8790;53.590;10.002;2022-09-09T12:57:56;3.93;;;2.83;;
17345;SDS011;8790;53.590;10.002;2022-09-09T13:00:30;4.40;;;2.63;;
17345;SDS011;8790;53.590;10.002;2022-09-09T13:03:02;4.22;;;2.60;;
17345;SDS011;8790;53.590;10.002;2022-09-09T13:05:47;4.03;;;2.53;;
17345;SDS011;8790;53.590;10.002;2022-09-09T13:08:20;5.15;;;2.70;;
17345;SDS011;8790;53.590;10.002;2022-09-09T13:10:52;3.57;;;2.97;;
17345;SDS011;8790;53.590;10.002;2022-09-09T13:13:29;4.27;;;3.30;;
17345;SDS011;8790;53.590;10.002;2022-09-09T13:16:06;5.15;;;3.22;;
17345;SDS011;8790;53.590;10.002;2022-09-09T13:18:50;3.92;;;3.40;;
17345;SDS011;8790;53.590;10.002;2022-09-09T13:21:30;4.53;;;3.53;;
17345;SDS011;8790;53.590;10.002;2022-09-09T13:24:04;3.80;;;3.40;;
17345;SDS011;8790;53.590;10.002;2022-09-09T13:26:40;5.05;;;3.40;;
17345;SDS011;8790;53.590;10.002;2022-09-09T13:29:17;5.10;;;3.15;;
17345;SDS011;8790;53.590;10.002;2022-09-09T13:31:50;6.10;;;3.10;;
17345;SDS011;8790;53.590;10.002;2022-09-09T13:34:27;4.72;;;3.55;;
17345;SDS011;8790;53.590;10.002;2022-09-09T13:37:00;4.93;;;3.78;;
17345;SDS011;8790;53.590;10.002;2022-09-09T13:39:34;5.05;;;3.83;;
17345;SDS011;8790;53.590;10.002;2022-09-09T13:42:19;6.75;;;4.18;;
17345;SDS011;8790;53.590;10.002;2022-09-09T13:44:57;6.67;;;4.60;;
17345;SDS011;8790;53.590;10.002;2022-09-09T13:47:31;6.17;;;4.30;;
17345;SDS011;8790;53.590;10.002;2022-09-09T13:50:18;7.90;;;4.37;;
17345;SDS011;8790;53.590;10.002;2022-09-09T13:52:51;7.37;;;4.10;;
17345;SDS011;8790;53.590;10.002;2022-09-09T13:55:25;6.73;;;4.37;;
17345;SDS011;8790;53.590;10.002;2022-09-09T13:57:59;6.67;;;4.27;;
17345;SDS011;8790;53.590;10.002;2022-09-09T14:00:34;7.17;;;4.00;;
17345;SDS011;8790;53.590;10.002;2022-09-09T14:03:06;4.95;;;4.30;;
17345;SDS011;8790;53.590;10.002;2022-09-09T14:05:38;6.70;;;4.43;;
17345;SDS011;8790;53.590;10.002;2022-09-09T14:08:11;6.33;;;4.33;;
17345;SDS011;8790;53.590;10.002;2022-09-09T14:10:51;6.60;;;4.10;;
17345;SDS011;8790;53.590;10.002;2022-09-09T14:13:23;5.80;;;4.27;;
17345;SDS011;8790;53.590;10.002;2022-09-09T14:15:56;5.37;;;4.50;;
17345;SDS011;8790;53.590;10.002;2022-09-09T14:18:28;6.10;;;4.57;;
17345;SDS011;8790;53.590;10.002;2022-09-09T14:20:59;7.53;;;4.73;;
17345;SDS011;8790;53.590;10.002;2022-09-09T14:23:32;5.60;;;4.60;;
17345;SDS011;8790;53.590;10.002;2022-09-09T14:26:04;5.90;;;4.70;;
17345;SDS011;8790;53.590;10.002;2022-09-09T14:28:36;5.63;;;4.80;;
17345;SDS011;8790;53.590;10.002;2022-09-09T14:31:11;7.00;;;5.17;;
17345;SDS011;8790;53.590;10.002;2022-09-09T14:33:43;6.77;;;4.60;;
17345;SDS011;8790;53.590;10.002;2022-09-09T14:36:15;5.80;;;3.80;;
17345;SDS011;8790;53.590;10.002;2022-09-09T14:38:47;3.97;;;3.30;;
17345;SDS011;8790;53.590;10.002;2022-09-09T14:41:20;6.83;;;3.70;;
17345;SDS011;8790;53.590;10.002;2022-09-09T14:43:52;2.87;;;2.50;;
17345;SDS011;8790;53.590;10.002;2022-09-09T14:46:25;4.33;;;2.50;;
17345;SDS011;8790;53.590;10.002;2022-09-09T14:48:57;3.67;;;2.70;;
17345;SDS011;8790;53.590;10.002;2022-09-09T14:51:29;6.00;;;3.37;;
17345;SDS011;8790;53.590;10.002;2022-09-09T14:54:01;4.47;;;3.23;;
17345;SDS011;8790;53.590;10.002;2022-09-09T14:56:33;5.43;;;3.23;;
17345;SDS011;8790;53.590;10.002;2022-09-09T14:59:05;4.27;;;3.27;;
17345;SDS011;8790;53.590;10.002;2022-09-09T15:01:38;4.60;;;3.00;;
17345;SDS011;8790;53.590;10.002;2022-09-09T15:04:11;4.80;;;3.37;;
17345;SDS011;8790;53.590;10.002;2022-09-09T15:06:45;4.60;;;3.30;;
17345;SDS011;8790;53.590;10.002;2022-09-09T15:09:18;4.43;;;3.33;;
17345;SDS011;8790;53.590;10.002;2022-09-09T15:11:49;4.00;;;3.07;;
17345;SDS011;8790;53.590;10.002;2022-09-09T15:14:21;3.53;;;3.23;;
17345;SDS011;8790;53.590;10.002;2022-09-09T15:16:54;6.90;;;4.20;;
17345;SDS011;8790;53.590;10.002;2022-09-09T15:19:26;5.07;;;3.80;;
17345;SDS011;8790;53.590;10.002;2022-09-09T15:21:58;6.27;;;4.03;;
17345;SDS011;8790;53.590;10.002;2022-09-09T15:24:30;7.17;;;3.60;;
17345;SDS011;8790;53.590;10.002;2022-09-09T15:27:02;4.77;;;3.97;;
17345;SDS011;8790;53.590;10.002;2022-09-09T15:29:34;6.03;;;4.67;;
17345;SDS011;8790;53.590;10.002;2022-09-09T15:32:07;5.80;;;4.40;;
17345;SDS011;8790;53.590;10.002;2022-09-09T15:34:39;5.77;;;4.00;;
17345;SDS011;8790;53.590;10.002;2022-09-09T15:37:10;5.83;;;3.60;;
17345;SDS011;8790;53.590;10.002;2022-09-09T15:39:43;3.80;;;3.00;;